Kezdőlap
METAR-TAF:

METAR-TAF

Repülőterek :

Taskent, Üzbegisztán

földrajzi szélesség: 41-16N, földrajzi hosszúság: 069-16E, magasság: 489 m

Jelenlegi meteorológiai megfigyelések

A jelentés 43 perccel ezelõtt készült, 20:00 UTC
Északi szél 8 kt
Hőmérséklet 23°C
Páratartalom 41%
Légköri nyomás 1012 hPa
Látótávolság 10 km, vagy több
felhőtlen 1500 m magasságban, és nincs gomolyfelhõ

METAR: UTTT 032000Z 36008KT CAVOK 23/09 Q1012 R08R/CLRD70 NOSIG

Idő: 01:43 (20:43 UTC)

Előrejelzés

A jelentés 3 órával és 43 perccel ezelõtt készült, 17:00 UTC
Az előrejelzés 03-én 18 óra UTC és 04-én 18 óra UTC között érvényes
Kelet-északkeleti szél 12 kt
Látótávolság: 7000 m

TAF: UTTT 031700Z 0318/0418 06012KT 7000 NSC

Meteorológiai megfigyelések és előrejelzések több, mint 4000 repülőtéren (METAR és TAF jelentéseket).

A térképen piros és sárga pontok jelzik az elérhető meteorológiai állomásokat.

Mozgassa az egeret a pont fölött, hogy megjelenjen az állomás neve.

Azután kattintson az időjárási megfigyelések és előrejelzések megtekintéséhez.

A térkép megváltoztatása: kattintson a fekete keresztel jelölt zöld gombra ráközelítéshez, a vonallal jelölt zöld gombra távolításhoz, vagy a zöld nyilakra a szomszédos térképek eléréséhez.


METAR-TAF: